Terminal Aerodrome Forecast
Issued by NWS Sioux Falls, SD

Home | Current Version | Previous Version | Text Only | Print | Product List | Glossary On
Versions: 1 2 3 4 5 6 7 8 9 10 11 12 13 14 15 16 17 18 19 20
000
FTUS43 KFSD 231403 AAA
TAFHON
TAF AMD
KHON 231403Z 2314/2412 12011KT 5SM BR VCTS OVC005CB
      TEMPO 2314/2316 OVC008CB
     FM231600 11012KT P6SM OVC009
     FM231700 12014G21KT P6SM BKN015
     FM231900 12014G21KT P6SM BKN025
     FM232000 13014G20KT P6SM SCT035
     FM240200 13014G20KT P6SM SKC WS015/16045KT
     FM240700 14013G19KT P6SM SKC=

USA.gov is the U.S. government's official web portal to all federal, state and local government web resources and services.